createdAt,value
2023-02-12T00:02:03.525Z,100440.34
2023-02-12T00:04:30.324Z,100443.81
2023-02-12T00:06:56.933Z,100434.13
2023-02-12T00:09:23.529Z,100423.53
2023-02-12T00:11:50.233Z,100426.28
2023-02-12T00:14:16.994Z,100423.75
2023-02-12T00:16:43.706Z,100419.34
2023-02-12T00:19:10.423Z,100419.38
2023-02-12T00:21:37.093Z,100430.75
2023-02-12T00:24:04.164Z,100425.38
2023-02-12T00:26:30.953Z,100424.44
2023-02-12T00:28:57.614Z,100424.44
2023-02-12T00:31:28.350Z,100433.25
2023-02-12T00:33:56.626Z,100430.50
2023-02-12T00:36:26.112Z,100432.16
2023-02-12T00:38:54.811Z,100432.97
2023-02-12T00:41:22.610Z,100433.84
2023-02-12T00:43:50.380Z,100436.44
2023-02-12T00:46:17.321Z,100446.03
2023-02-12T00:48:44.282Z,100448.59
2023-02-12T00:51:11.011Z,100452.00
2023-02-12T00:53:38.006Z,100452.84
2023-02-12T00:56:04.956Z,100453.69
2023-02-12T00:58:31.753Z,100455.38
2023-02-12T01:00:59.496Z,100457.22
2023-02-12T01:03:26.212Z,100451.16
2023-02-12T01:05:54.018Z,100460.88
2023-02-12T01:08:21.949Z,100464.31
2023-02-12T01:11:04.077Z,100452.06
2023-02-12T01:13:31.817Z,100458.28
2023-02-12T01:16:10.884Z,100448.69
2023-02-12T01:18:38.050Z,100461.09
2023-02-12T01:21:11.557Z,100440.13
2023-02-12T01:23:38.466Z,100442.75
2023-02-12T01:26:05.342Z,100447.97
2023-02-12T01:28:32.027Z,100447.13
2023-02-12T01:30:58.796Z,100447.09
2023-02-12T01:33:26.997Z,100448.88
2023-02-12T01:35:54.930Z,100452.34
2023-02-12T01:38:21.815Z,100454.91
2023-02-12T01:40:48.543Z,100449.66
2023-02-12T01:43:15.181Z,100453.13
2023-02-12T01:45:50.803Z,100452.25
2023-02-12T01:48:20.369Z,100458.38
2023-02-12T01:50:49.088Z,100455.72
2023-02-12T01:53:20.223Z,100460.00
2023-02-12T01:55:48.860Z,100451.06
2023-02-12T01:58:16.267Z,100448.41
2023-02-12T02:00:43.464Z,100438.00
2023-02-12T02:03:10.300Z,100441.66
2023-02-12T02:05:45.716Z,100432.06
2023-02-12T02:08:13.154Z,100432.84
2023-02-12T02:10:39.899Z,100429.28
2023-02-12T02:13:26.136Z,100431.16
2023-02-12T02:15:59.866Z,100426.06
2023-02-12T02:18:43.260Z,100411.06
2023-02-12T02:21:41.905Z,100412.84
2023-02-12T02:24:47.353Z,100416.47
2023-02-12T02:27:23.480Z,100417.38
2023-02-12T02:30:23.931Z,100421.91
2023-02-12T02:33:24.461Z,100418.38
2023-02-12T02:36:02.983Z,100414.75
2023-02-12T02:39:00.812Z,100410.38
2023-02-12T02:41:38.987Z,100412.94
2023-02-12T02:44:14.965Z,100410.22
2023-02-12T02:46:48.681Z,100405.00
2023-02-12T02:49:25.299Z,100408.44
2023-02-12T02:51:59.454Z,100405.78
2023-02-12T02:54:32.242Z,100405.88
2023-02-12T02:57:06.962Z,100398.97
2023-02-12T02:59:40.078Z,100405.16
2023-02-12T03:02:12.725Z,100400.84
2023-02-12T03:04:46.103Z,100407.00
2023-02-12T03:07:38.321Z,100407.09
2023-02-12T03:10:15.868Z,100403.56
2023-02-12T03:13:08.185Z,100395.66
2023-02-12T03:15:39.943Z,100398.19
2023-02-12T03:18:12.757Z,100397.31
2023-02-12T03:20:48.704Z,100392.78
2023-02-12T03:23:23.464Z,100390.31
2023-02-12T03:25:57.079Z,100393.88
2023-02-12T03:28:31.369Z,100394.72
2023-02-12T03:31:22.276Z,100395.63
2023-02-12T03:34:07.299Z,100398.31
2023-02-12T03:36:56.759Z,100391.38
2023-02-12T03:39:43.556Z,100394.94
2023-02-12T03:42:18.209Z,100389.75
2023-02-12T03:44:44.798Z,100399.41
2023-02-12T03:47:21.071Z,100400.31
2023-02-12T03:50:18.000Z,100395.03
2023-02-12T03:52:46.319Z,100396.75
2023-02-12T03:55:16.409Z,100401.09
2023-02-12T03:57:47.859Z,100403.72
2023-02-12T04:00:22.112Z,100393.28
2023-02-12T04:02:48.944Z,100409.94
2023-02-12T04:05:20.182Z,100405.56
2023-02-12T04:07:47.198Z,100401.19
2023-02-12T04:10:14.444Z,100403.81
2023-02-12T04:12:52.152Z,100407.31
2023-02-12T04:15:37.425Z,100401.03
2023-02-12T04:18:10.439Z,100404.66
2023-02-12T04:21:06.751Z,100403.72
2023-02-12T04:23:55.107Z,100405.50
2023-02-12T04:26:33.580Z,100403.81
2023-02-12T04:29:18.926Z,100403.94
2023-02-12T04:31:48.452Z,100410.94
2023-02-12T04:34:44.152Z,100404.72
2023-02-12T04:37:34.089Z,100409.84
2023-02-12T04:40:06.204Z,100410.69
2023-02-12T04:42:44.996Z,100414.09
2023-02-12T04:45:13.863Z,100413.13
2023-02-12T04:47:40.641Z,100416.75
2023-02-12T04:50:08.169Z,100414.16
2023-02-12T04:52:34.854Z,100412.38
2023-02-12T04:55:01.494Z,100410.63
2023-02-12T04:57:28.195Z,100407.84
2023-02-12T04:59:54.987Z,100411.38
2023-02-12T05:02:21.704Z,100411.22
2023-02-12T05:04:50.217Z,100409.47
2023-02-12T05:07:17.153Z,100404.06
2023-02-12T05:09:43.833Z,100401.31
2023-02-12T05:12:10.510Z,100400.47
2023-02-12T05:14:37.304Z,100393.34
2023-02-12T05:17:03.924Z,100397.91
2023-02-12T05:19:30.663Z,100403.94
2023-02-12T05:21:57.284Z,100403.97
2023-02-12T05:24:23.904Z,100409.31
2023-02-12T05:26:50.742Z,100408.41
2023-02-12T05:29:18.162Z,100409.38
2023-02-12T05:31:45.370Z,100406.75
2023-02-12T05:34:12.919Z,100406.69
2023-02-12T05:36:40.030Z,100412.88
2023-02-12T05:39:07.418Z,100411.06
2023-02-12T05:41:37.664Z,100403.97
2023-02-12T05:44:06.422Z,100409.31
2023-02-12T05:46:33.379Z,100411.06
2023-02-12T05:49:00.102Z,100413.28
2023-02-12T05:51:27.295Z,100412.56
2023-02-12T05:53:59.903Z,100419.44
2023-02-12T05:56:41.524Z,100423.94
2023-02-12T05:59:15.845Z,100419.44
2023-02-12T06:01:44.598Z,100421.25
2023-02-12T06:04:24.368Z,100419.44
2023-02-12T06:06:52.707Z,100416.84
2023-02-12T06:09:19.620Z,100425.69
2023-02-12T06:11:46.320Z,100422.25
2023-02-12T06:14:16.542Z,100427.63
2023-02-12T06:16:48.482Z,100435.25
2023-02-12T06:19:15.793Z,100432.72
2023-02-12T06:21:42.405Z,100431.00
2023-02-12T06:24:12.176Z,100436.44
2023-02-12T06:26:38.978Z,100433.84
2023-02-12T06:29:05.734Z,100433.06
2023-02-12T06:31:35.676Z,100433.97
2023-02-12T06:34:05.918Z,100427.91
2023-02-12T06:36:32.954Z,100435.06
2023-02-12T06:39:01.887Z,100434.19
2023-02-12T06:41:28.805Z,100437.78
2023-02-12T06:43:55.567Z,100431.50
2023-02-12T06:46:22.598Z,100429.66
2023-02-12T06:48:53.676Z,100434.13
2023-02-12T06:51:22.947Z,100442.03
2023-02-12T06:53:50.994Z,100437.69
2023-02-12T06:56:19.070Z,100443.81
2023-02-12T06:58:48.272Z,100442.88
2023-02-12T07:01:21.522Z,100440.44
2023-02-12T07:03:56.845Z,100443.19
2023-02-12T07:06:24.854Z,100438.75
2023-02-12T07:08:51.557Z,100441.44
2023-02-12T07:11:18.919Z,100447.34
2023-02-12T07:13:45.861Z,100451.19
2023-02-12T07:16:15.093Z,100444.16
2023-02-12T07:18:43.344Z,100446.03
2023-02-12T07:21:12.005Z,100447.94
2023-02-12T07:23:39.437Z,100443.56
2023-02-12T07:26:14.001Z,100440.91
2023-02-12T07:28:41.980Z,100447.97
2023-02-12T07:31:09.925Z,100443.59
2023-02-12T07:33:37.663Z,100449.91
2023-02-12T07:36:06.289Z,100447.47
2023-02-12T07:38:35.924Z,100445.78
2023-02-12T07:41:10.873Z,100448.56
2023-02-12T07:43:39.568Z,100444.34
2023-02-12T07:46:12.226Z,100452.38
2023-02-12T07:48:39.236Z,100444.44
2023-02-12T07:51:11.430Z,100451.66
2023-02-12T07:53:38.527Z,100454.53
2023-02-12T07:56:13.849Z,100436.31
2023-02-12T07:58:42.603Z,100443.56
2023-02-12T08:01:33.644Z,100441.28
2023-02-12T08:04:16.058Z,100437.09
2023-02-12T08:06:48.421Z,100427.66
2023-02-12T08:09:20.637Z,100434.91
2023-02-12T08:11:47.736Z,100428.06
2023-02-12T08:14:16.970Z,100417.69
2023-02-12T08:16:45.025Z,100429.91
2023-02-12T08:19:19.470Z,100422.16
2023-02-12T08:21:52.387Z,100422.25
2023-02-12T08:24:19.421Z,100425.94
2023-02-12T08:26:46.142Z,100419.69
2023-02-12T08:29:18.794Z,100435.53
2023-02-12T08:31:48.967Z,100431.38
2023-02-12T08:34:21.573Z,100427.22
2023-02-12T08:36:50.486Z,100419.41
2023-02-12T08:39:18.705Z,100422.19
2023-02-12T08:41:46.337Z,100420.47
2023-02-12T08:44:14.194Z,100416.88
2023-02-12T08:46:46.749Z,100425.63
2023-02-12T08:49:22.503Z,100421.38
2023-02-12T08:51:54.307Z,100405.72
2023-02-12T08:54:23.880Z,100402.22
2023-02-12T08:56:54.122Z,100408.44
2023-02-12T08:59:20.806Z,100393.47
2023-02-12T09:01:51.400Z,100397.88
2023-02-12T09:04:27.625Z,100400.41
2023-02-12T09:06:54.723Z,100410.03
2023-02-12T09:09:21.758Z,100409.16
2023-02-12T09:11:49.460Z,100401.13
2023-02-12T09:14:18.790Z,100416.84
2023-02-12T09:16:45.959Z,100421.19
2023-02-12T09:19:13.874Z,100423.44
2023-02-12T09:21:41.111Z,100411.03
2023-02-12T09:24:08.566Z,100419.81
2023-02-12T09:26:35.520Z,100418.13
2023-02-12T09:29:04.151Z,100427.72
2023-02-12T09:31:32.838Z,100425.91
2023-02-12T09:34:05.567Z,100427.94
2023-02-12T09:36:33.510Z,100420.97
2023-02-12T09:39:00.770Z,100421.81
2023-02-12T09:41:47.591Z,100422.81
2023-02-12T09:44:21.703Z,100418.28
2023-02-12T09:47:06.868Z,100426.91
2023-02-12T09:49:56.551Z,100422.34
2023-02-12T09:52:27.471Z,100429.25
2023-02-12T09:54:54.985Z,100431.16
2023-02-12T09:57:33.361Z,100433.75
2023-02-12T10:00:05.125Z,100429.34
2023-02-12T10:02:34.845Z,100431.47
2023-02-12T10:05:02.607Z,100438.53
2023-02-12T10:07:43.583Z,100443.94
2023-02-12T10:10:33.245Z,100437.78
2023-02-12T10:13:13.012Z,100434.72
2023-02-12T10:16:05.921Z,100435.09
2023-02-12T10:18:47.911Z,100435.88
2023-02-12T10:21:42.515Z,100436.13
2023-02-12T10:24:31.091Z,100436.81
2023-02-12T10:27:03.070Z,100437.56
2023-02-12T10:29:34.787Z,100430.63
2023-02-12T10:32:13.304Z,100450.63
2023-02-12T10:34:42.581Z,100438.38
2023-02-12T10:37:27.217Z,100436.53
2023-02-12T10:40:17.941Z,100449.59
2023-02-12T10:42:48.968Z,100436.19
2023-02-12T10:45:22.357Z,100436.81
2023-02-12T10:47:54.592Z,100438.91
2023-02-12T10:50:33.677Z,100435.06
2023-02-12T10:53:03.409Z,100435.28
2023-02-12T10:55:32.273Z,100429.31
2023-02-12T10:58:01.431Z,100426.44
2023-02-12T11:00:36.739Z,100429.63
2023-02-12T11:03:12.511Z,100424.53
2023-02-12T11:05:41.860Z,100423.56
2023-02-12T11:08:26.389Z,100428.78
2023-02-12T11:10:53.251Z,100425.22
2023-02-12T11:13:27.865Z,100427.63
2023-02-12T11:15:55.362Z,100414.91
2023-02-12T11:18:28.210Z,100415.81
2023-02-12T11:21:09.936Z,100404.63
2023-02-12T11:23:42.031Z,100402.28
2023-02-12T11:26:17.517Z,100390.03
2023-02-12T11:28:54.839Z,100392.69
2023-02-12T11:31:30.008Z,100385.69
2023-02-12T11:34:07.816Z,100392.00
2023-02-12T11:36:41.506Z,100391.19
2023-02-12T11:39:18.170Z,100388.34
2023-02-12T11:41:45.049Z,100388.25
2023-02-12T11:44:18.124Z,100395.38
2023-02-12T11:46:50.978Z,100391.19
2023-02-12T11:49:25.223Z,100394.81
2023-02-12T11:51:52.669Z,100400.72
2023-02-12T11:54:33.935Z,100390.38
2023-02-12T11:57:00.597Z,100402.03
2023-02-12T11:59:36.877Z,100396.38
2023-02-12T12:02:30.354Z,100394.44
2023-02-12T12:05:08.061Z,100396.97
2023-02-12T12:07:39.039Z,100382.78
2023-02-12T12:10:25.729Z,100383.88
2023-02-12T12:12:59.685Z,100383.88
2023-02-12T12:15:49.288Z,100382.03
2023-02-12T12:19:19.974Z,100365.50
2023-02-12T12:22:27.985Z,100375.22
2023-02-12T12:25:06.387Z,100380.66
2023-02-12T12:28:03.134Z,100372.06
2023-02-12T12:30:53.096Z,100371.38
2023-02-12T12:33:30.698Z,100369.81
2023-02-12T12:36:25.849Z,100355.81
2023-02-12T12:38:58.421Z,100358.47
2023-02-12T12:41:59.712Z,100354.16
2023-02-12T12:44:40.427Z,100355.03
2023-02-12T12:47:17.478Z,100355.00
2023-02-12T12:50:00.339Z,100361.94
2023-02-12T12:52:52.765Z,100356.66
2023-02-12T12:55:50.283Z,100347.03
2023-02-12T12:58:55.826Z,100346.25
2023-02-12T13:01:50.684Z,100345.38
2023-02-12T13:04:39.996Z,100328.69
2023-02-12T13:07:25.054Z,100334.88
2023-02-12T13:10:07.844Z,100324.31
2023-02-12T13:13:06.896Z,100323.41
2023-02-12T13:15:44.234Z,100319.88
2023-02-12T13:18:10.815Z,100320.81
2023-02-12T13:21:04.135Z,100320.84
2023-02-12T13:23:37.804Z,100308.47
2023-02-12T13:26:31.788Z,100315.50
2023-02-12T13:29:09.842Z,100309.28
2023-02-12T13:31:45.351Z,100311.06
2023-02-12T13:34:15.053Z,100303.94
2023-02-12T13:36:42.550Z,100303.97
2023-02-12T13:39:18.793Z,100311.06
2023-02-12T13:41:55.208Z,100306.59
2023-02-12T13:44:40.772Z,100321.41
2023-02-12T13:47:21.309Z,100317.88
2023-02-12T13:50:10.861Z,100325.69
2023-02-12T13:52:49.574Z,100325.69
2023-02-12T13:55:29.190Z,100318.69
2023-02-12T13:58:39.696Z,100318.63
2023-02-12T14:01:10.766Z,100316.94
2023-02-12T14:03:38.794Z,100313.50
2023-02-12T14:06:13.146Z,100314.53
2023-02-12T14:08:47.034Z,100311.06
2023-02-12T14:11:17.278Z,100305.72
2023-02-12T14:14:04.129Z,100297.78
2023-02-12T14:16:30.708Z,100301.31
2023-02-12T14:19:34.820Z,100305.66
2023-02-12T14:22:02.856Z,100307.38
2023-02-12T14:24:38.532Z,100304.69
2023-02-12T14:27:17.445Z,100307.31
2023-02-12T14:30:09.013Z,100303.81
2023-02-12T14:32:55.232Z,100309.06
2023-02-12T14:35:33.925Z,100297.56
2023-02-12T14:38:03.685Z,100305.50
2023-02-12T14:40:33.031Z,100303.81
2023-02-12T14:43:01.877Z,100297.69
2023-02-12T14:45:36.223Z,100293.19
2023-02-12T14:48:05.074Z,100300.28
2023-02-12T14:50:39.537Z,100298.50
2023-02-12T14:53:22.288Z,100294.97
2023-02-12T14:55:49.746Z,100296.78
2023-02-12T14:58:20.434Z,100297.56
2023-02-12T15:00:50.729Z,100295.78
2023-02-12T15:03:30.580Z,100285.16
2023-02-12T15:06:09.988Z,100286.88
2023-02-12T15:08:55.138Z,100286.91
2023-02-12T15:11:54.207Z,100283.47
2023-02-12T15:14:39.982Z,100285.25
2023-02-12T15:17:20.958Z,100283.44
2023-02-12T15:20:02.693Z,100279.06
2023-02-12T15:22:40.483Z,100283.44
2023-02-12T15:25:27.166Z,100280.78
2023-02-12T15:28:02.238Z,100278.94
2023-02-12T15:30:35.945Z,100274.50
2023-02-12T15:33:06.844Z,100276.25
2023-02-12T15:35:37.073Z,100278.91
2023-02-12T15:38:07.455Z,100283.31
2023-02-12T15:40:34.879Z,100284.16
2023-02-12T15:43:07.335Z,100280.59
2023-02-12T15:45:36.181Z,100280.56
2023-02-12T15:48:15.899Z,100284.84
2023-02-12T15:50:55.981Z,100282.25
2023-02-12T15:53:25.951Z,100283.13
2023-02-12T15:55:52.984Z,100276.91
2023-02-12T15:58:24.666Z,100278.66
2023-02-12T16:00:52.799Z,100284.78
2023-02-12T16:03:31.902Z,100287.34
2023-02-12T16:06:18.534Z,100282.91
2023-02-12T16:08:49.476Z,100289.00
2023-02-12T16:11:23.194Z,100283.66
2023-02-12T16:13:54.076Z,100293.34
2023-02-12T16:16:28.933Z,100283.59
2023-02-12T16:19:26.327Z,100288.84
2023-02-12T16:22:06.302Z,100291.44
2023-02-12T16:24:39.998Z,100292.22
2023-02-12T16:27:18.923Z,100291.31
2023-02-12T16:29:57.971Z,100293.88
2023-02-12T16:32:42.324Z,100289.38
2023-02-12T16:35:12.122Z,100291.97
2023-02-12T16:37:38.746Z,100295.44
2023-02-12T16:40:17.536Z,100287.53
2023-02-12T16:42:46.988Z,100297.19
2023-02-12T16:45:35.258Z,100289.22
2023-02-12T16:48:07.677Z,100287.38
2023-02-12T16:50:43.552Z,100283.75
2023-02-12T16:53:33.462Z,100296.91
2023-02-12T16:56:01.523Z,100288.88
2023-02-12T16:58:28.550Z,100295.84
2023-02-12T17:00:57.203Z,100301.03
2023-02-12T17:03:24.598Z,100300.97
2023-02-12T17:05:52.423Z,100292.97
2023-02-12T17:08:22.237Z,100296.44
2023-02-12T17:10:48.927Z,100295.47
2023-02-12T17:13:16.246Z,100310.38
2023-02-12T17:15:49.737Z,100309.41
2023-02-12T17:18:18.178Z,100307.59
2023-02-12T17:20:51.666Z,100310.16
2023-02-12T17:23:18.519Z,100306.50
2023-02-12T17:25:45.225Z,100308.22
2023-02-12T17:28:12.443Z,100305.50
2023-02-12T17:30:39.238Z,100299.38
2023-02-12T17:33:05.934Z,100307.16
2023-02-12T17:35:32.579Z,100306.19
2023-02-12T17:37:59.308Z,100308.69
2023-02-12T17:40:26.062Z,100311.25
2023-02-12T17:42:52.730Z,100309.50
2023-02-12T17:45:19.503Z,100313.84
2023-02-12T17:47:46.507Z,100308.38
2023-02-12T17:50:15.522Z,100310.84
2023-02-12T17:52:42.968Z,100314.28
2023-02-12T17:55:14.911Z,100312.47
2023-02-12T17:57:41.606Z,100314.16
2023-02-12T18:00:10.373Z,100316.78
2023-02-12T18:02:39.981Z,100308.84
2023-02-12T18:05:07.220Z,100315.88
2023-02-12T18:07:35.465Z,100315.94
2023-02-12T18:10:02.215Z,100316.75
2023-02-12T18:12:30.818Z,100320.16
2023-02-12T18:14:58.548Z,100313.97
2023-02-12T18:17:25.524Z,100317.44
2023-02-12T18:19:53.330Z,100318.28
2023-02-12T18:22:20.699Z,100319.97
2023-02-12T18:24:47.690Z,100324.34
2023-02-12T18:27:15.559Z,100320.81
2023-02-12T18:29:42.253Z,100321.66
2023-02-12T18:32:14.404Z,100320.78
2023-02-12T18:34:42.564Z,100319.88
2023-02-12T18:37:11.047Z,100314.44
2023-02-12T18:39:37.951Z,100317.16
2023-02-12T18:42:05.348Z,100311.00
2023-02-12T18:44:32.285Z,100320.56
2023-02-12T18:46:59.984Z,100307.34
2023-02-12T18:49:28.003Z,100319.63
2023-02-12T18:51:54.992Z,100321.34
2023-02-12T18:54:22.471Z,100309.97
2023-02-12T18:56:51.525Z,100319.63
2023-02-12T18:59:18.595Z,100319.63
2023-02-12T19:01:47.117Z,100321.03
2023-02-12T19:04:16.029Z,100320.16
2023-02-12T19:06:46.128Z,100318.56
2023-02-12T19:09:16.524Z,100310.59
2023-02-12T19:11:46.388Z,100308.00
2023-02-12T19:14:14.647Z,100315.84
2023-02-12T19:16:42.025Z,100309.56
2023-02-12T19:19:08.977Z,100319.16
2023-02-12T19:21:35.846Z,100319.94
2023-02-12T19:24:04.741Z,100313.00
2023-02-12T19:26:33.628Z,100312.94
2023-02-12T19:29:01.259Z,100312.06
2023-02-12T19:31:33.791Z,100312.03
2023-02-12T19:34:03.746Z,100313.78
2023-02-12T19:36:33.617Z,100313.69
2023-02-12T19:39:00.882Z,100317.16
2023-02-12T19:41:29.975Z,100313.78
2023-02-12T19:43:58.798Z,100307.63
2023-02-12T19:46:30.003Z,100313.69
2023-02-12T19:48:59.510Z,100312.88
2023-02-12T19:51:27.682Z,100309.31
2023-02-12T19:53:54.402Z,100306.59
2023-02-12T19:56:21.259Z,100312.69
2023-02-12T19:58:47.934Z,100319.69
2023-02-12T20:01:17.838Z,100315.16
2023-02-12T20:03:46.260Z,100320.53
2023-02-12T20:06:19.437Z,100310.91
2023-02-12T20:08:46.266Z,100317.84
2023-02-12T20:11:17.563Z,100319.41
2023-02-12T20:13:44.681Z,100314.94
2023-02-12T20:16:17.836Z,100323.66
2023-02-12T20:18:46.707Z,100326.28
2023-02-12T20:21:20.392Z,100323.44
2023-02-12T20:23:47.116Z,100326.06
2023-02-12T20:26:15.435Z,100326.16
2023-02-12T20:28:43.039Z,100318.28
2023-02-12T20:31:15.567Z,100322.59
2023-02-12T20:33:43.255Z,100321.72
2023-02-12T20:36:13.684Z,100320.81
2023-02-12T20:38:42.033Z,100319.06
2023-02-12T20:41:09.989Z,100322.53
2023-02-12T20:43:38.534Z,100320.75
2023-02-12T20:46:11.891Z,100321.69
2023-02-12T20:48:39.322Z,100324.28
2023-02-12T20:51:08.361Z,100322.66
2023-02-12T20:53:35.802Z,100318.28
2023-02-12T20:56:17.729Z,100313.06
2023-02-12T20:58:45.952Z,100323.56
2023-02-12T21:01:21.360Z,100315.56
2023-02-12T21:03:49.396Z,100322.53
2023-02-12T21:06:16.028Z,100322.53
2023-02-12T21:08:43.103Z,100317.22
2023-02-12T21:11:15.298Z,100326.00
2023-02-12T21:13:50.396Z,100318.91
2023-02-12T21:16:32.093Z,100317.06
2023-02-12T21:18:59.351Z,100317.75
2023-02-12T21:21:34.952Z,100323.22
2023-02-12T21:24:03.993Z,100321.41
2023-02-12T21:26:32.004Z,100325.78
2023-02-12T21:29:00.229Z,100326.66
2023-02-12T21:31:38.509Z,100324.88
2023-02-12T21:34:06.791Z,100319.50
2023-02-12T21:36:39.950Z,100319.44
2023-02-12T21:39:09.184Z,100326.44
2023-02-12T21:41:38.095Z,100322.00
2023-02-12T21:44:15.709Z,100319.44
2023-02-12T21:46:43.408Z,100315.16
2023-02-12T21:49:12.399Z,100318.94
2023-02-12T21:51:41.875Z,100322.22
2023-02-12T21:54:11.228Z,100325.09
2023-02-12T21:56:39.314Z,100312.13
2023-02-12T21:59:08.506Z,100318.34
2023-02-12T22:01:38.041Z,100317.56
2023-02-12T22:04:06.658Z,100315.88
2023-02-12T22:06:37.243Z,100321.03
2023-02-12T22:09:08.789Z,100312.41
2023-02-12T22:11:36.897Z,100309.00
2023-02-12T22:14:04.648Z,100320.41
2023-02-12T22:16:31.749Z,100315.06
2023-02-12T22:19:00.482Z,100311.84
2023-02-12T22:21:34.947Z,100318.22
2023-02-12T22:24:03.025Z,100316.53
2023-02-12T22:26:31.387Z,100312.25
2023-02-12T22:29:01.788Z,100310.56
2023-02-12T22:31:31.444Z,100302.78
2023-02-12T22:34:00.780Z,100299.41
2023-02-12T22:36:28.540Z,100306.47
2023-02-12T22:38:58.261Z,100299.41
2023-02-12T22:41:27.567Z,100300.25
2023-02-12T22:43:54.515Z,100311.72
2023-02-12T22:46:21.408Z,100309.97
2023-02-12T22:48:48.067Z,100323.16
2023-02-12T22:51:21.032Z,100307.28
2023-02-12T22:53:47.767Z,100320.53
2023-02-12T22:56:15.023Z,100310.94
2023-02-12T22:58:42.167Z,100318.03
2023-02-12T23:01:12.109Z,100324.25
2023-02-12T23:03:38.888Z,100317.19
2023-02-12T23:06:16.739Z,100317.19
2023-02-12T23:08:44.284Z,100320.78
2023-02-12T23:11:11.807Z,100322.47
2023-02-12T23:13:38.800Z,100323.25
2023-02-12T23:16:05.740Z,100321.53
2023-02-12T23:18:32.928Z,100329.31
2023-02-12T23:21:00.409Z,100325.63
2023-02-12T23:23:27.467Z,100328.25
2023-02-12T23:25:54.690Z,100328.22
2023-02-12T23:28:21.947Z,100322.00
2023-02-12T23:30:49.848Z,100329.97
2023-02-12T23:33:16.774Z,100324.47
2023-02-12T23:35:44.528Z,100323.53
2023-02-12T23:38:11.473Z,100324.38
2023-02-12T23:40:38.839Z,100320.66
2023-02-12T23:43:05.616Z,100311.00
2023-02-12T23:45:32.297Z,100310.00
2023-02-12T23:47:59.274Z,100312.69
2023-02-12T23:50:25.923Z,100303.84
2023-02-12T23:52:52.530Z,100304.53
2023-02-12T23:55:20.204Z,100302.00
2023-02-12T23:57:47.807Z,100305.53
